6R4066 / XA-GGL 7700 Squawk Report (12th of August, 2022)

Aircraft A306 Reg No. XA-GGL Age 30 years old
Model A300 Jet engines 2 First flight 03-12-91
Registered 27-02-17 Rollout 11-91 Delivered 08-04-92
Construction No. 626 Line No. N/A Series B4-605R
ADSHEX 0D0A56 Airline name AeroUnion Owner Bank of Utah Trustee
Airfield based Mexico City-LB Juarez~Fed Distr (Mex)~XA First tracked N/A

Flight history for XA-GGL

Route Flight No Date Playback
Eldorado Intl (BOG) - Licenciado Benito Juarez (MEX) N/A 2022-10-07 20:14:00
Miami Intl (MIA) - Eldorado Intl (BOG) QT4131 2022-10-07 18:06:00
Jose Maria Cordova (MDE) - Miami Intl (MIA) N/A 2022-10-07 07:56:00
Miami Intl (MIA) - Jose Maria Cordova (MDE) N/A 2022-10-07 03:07:00
Licenciado Benito Juarez (MEX) - Miami Intl (MIA) 6R270 2022-10-06 16:55:00
Eldorado Intl (BOG) - Licenciado Benito Juarez (MEX) N/A 2022-10-04 10:51:00
Miami Intl (MIA) - Eldorado Intl (BOG) QT4131 2022-10-04 05:40:00
La Mesa Intl (SAP) - Miami Intl (MIA) N/A 2022-10-03 23:38:00
???? N/A 2022-10-03 20:17:00
Miami Intl (MIA) - Licenciado Manuel Crescencio Rejon (MID) N/A 2022-10-03 17:29:00
Eldorado Intl (BOG) - Miami Intl (MIA) N/A 2022-10-03 10:10:00
Miami Intl (MIA) - Eldorado Intl (BOG) N/A 2022-10-03 02:45:00
La Aurora (GUA) - Miami Intl (MIA) N/A 2022-10-02 21:45:00
Miami Intl (MIA) - La Aurora (GUA) N/A 2022-10-02 19:33:00
Jose Maria Cordova (MDE) - Miami Intl (MIA) N/A 2022-10-01 20:55:00
Miami Intl (MIA) - Jose Maria Cordova (MDE) N/A 2022-10-01 17:56:00
???? N/A 2022-10-01 13:30:00
Licenciado Benito Juarez (MEX) - Miami Intl (MIA) N/A 2022-10-01 09:47:00
Eldorado Intl (BOG) - Licenciado Benito Juarez (MEX) N/A 2022-10-01 07:04:00
Miami Intl (MIA) - Eldorado Intl (BOG) N/A 2022-09-30 18:25:00
Time Lat Lon Altitude Heading Speed Vertical Rate
2022-08-12 10:22:57 GMT 25.792250 -80.305901 0 339 6 0
2022-08-12 10:22:56 GMT 25.792231 -80.305893 0 339 6 0
2022-08-12 10:22:55 GMT 25.792179 -80.305870 0 339 6 0
2022-08-12 10:22:53 GMT 25.792130 -80.305862 0 339 5 0
2022-08-12 10:22:51 GMT 25.792080 -80.305847 0 341 4 0
2022-08-12 10:22:49 GMT 25.792040 -80.305771 0 349 4 0
2022-08-12 10:22:48 GMT 25.792030 -80.305763 0 351 7 0
2022-08-12 10:22:46 GMT 25.792030 -80.305779 0 352 8 0
2022-08-12 10:22:45 GMT 25.792101 -80.305618 0 356 9 0
2022-08-12 10:22:43 GMT 25.792070 -80.305603 0 356 9 0
2022-08-12 10:22:42 GMT 25.792030 -80.305588 0 356 10 0
2022-08-12 10:22:40 GMT 25.791981 -80.305634 0 355 10 0
2022-08-12 10:22:39 GMT 25.791910 -80.305634 0 356 11 0
2022-08-12 10:22:37 GMT 25.791861 -80.305634 0 357 11 0
2022-08-12 10:22:36 GMT 25.791750 -80.305611 0 358 10 0
2022-08-12 10:22:34 GMT 25.791780 -80.305618 0 359 11 0
2022-08-12 10:22:33 GMT 25.791620 -80.305573 0 0 11 0
2022-08-12 10:22:31 GMT 25.791580 -80.305580 0 0 11 0
2022-08-12 10:22:29 GMT 25.791519 -80.305573 0 0 11 0
2022-08-12 10:22:27 GMT 25.791439 -80.305603 0 359 11 0
2022-08-12 10:22:26 GMT 25.791370 -80.305611 0 359 11 0
2022-08-12 10:22:24 GMT 25.791269 -80.305611 0 0 11 0
2022-08-12 10:22:23 GMT 25.791210 -80.305611 0 1 11 0
2022-08-12 10:22:21 GMT 25.791109 -80.305611 0 357 11 0
2022-08-12 10:22:20 GMT 25.791080 -80.305634 0 356 12 0
2022-08-12 10:22:18 GMT 25.790939 -80.305634 0 356 11 0
2022-08-12 10:22:17 GMT 25.790899 -80.305618 0 356 12 0
2022-08-12 10:22:16 GMT 25.790800 -80.305618 0 357 12 0
2022-08-12 10:22:14 GMT 25.790739 -80.305618 0 357 12 0
2022-08-12 10:22:13 GMT 25.790661 -80.305588 0 359 11 0
2022-08-12 10:22:12 GMT 25.790501 -80.305557 0 0 8 0
2022-08-12 10:22:10 GMT 25.790470 -80.305573 0 359 11 0
2022-08-12 10:22:09 GMT 25.790421 -80.305573 0 359 11 0
2022-08-12 10:22:07 GMT 25.790440 -80.305618 0 353 14 0
2022-08-12 10:22:06 GMT 25.790359 -80.305603 0 352 15 0
2022-08-12 10:22:04 GMT 25.790350 -80.305618 0 350 18 0
2022-08-12 10:22:03 GMT 25.790319 -80.305618 0 350 18 0
2022-08-12 10:21:57 GMT 25.789930 -80.305611 0 359 10 0
2022-08-12 10:21:56 GMT 25.789810 -80.305588 0 1 9 0
2022-08-12 10:21:54 GMT 25.789780 -80.305588 0 359 9 0
2022-08-12 10:21:53 GMT 25.789671 -80.305603 0 359 7 0
2022-08-12 10:21:51 GMT 25.789631 -80.305588 0 0 7 0
2022-08-12 10:21:49 GMT 25.789600 -80.305611 0 356 9 0
2022-08-12 10:21:47 GMT 25.789539 -80.305603 0 358 10 0
2022-08-12 10:21:46 GMT 25.789490 -80.305603 0 358 9 0
2022-08-12 10:21:44 GMT 25.789440 -80.305588 0 357 12 0
2022-08-12 10:21:43 GMT 25.789370 -80.305588 0 355 11 0
2022-08-12 10:21:42 GMT 25.789280 -80.305588 0 353 10 0
2022-08-12 10:21:40 GMT 25.789209 -80.305588 0 352 9 0
2022-08-12 10:21:38 GMT 25.789160 -80.305588 0 354 10 0
2022-08-12 10:21:37 GMT 25.789101 -80.305580 0 357 9 0
2022-08-12 10:21:36 GMT 25.789009 -80.305542 0 0 7 0
2022-08-12 10:21:34 GMT 25.788980 -80.305550 0 358 7 0
2022-08-12 10:21:32 GMT 25.788891 -80.305557 0 352 5 0
2022-08-12 10:21:31 GMT 25.788900 -80.305557 0 355 7 0
2022-08-12 10:21:30 GMT 25.788860 -80.305519 0 357 6 0
2022-08-12 10:21:29 GMT 25.788830 -80.305542 0 356 7 0
2022-08-12 10:21:27 GMT 25.788780 -80.305527 0 358 5 0
2022-08-12 10:21:26 GMT 25.788740 -80.305527 0 0 4 0
2022-08-12 10:21:24 GMT 25.788679 -80.305511 0 0 0 0
2022-08-12 10:21:23 GMT 25.788660 -80.305496 0 0 2 0
2022-08-12 10:21:21 GMT 25.788679 -80.305511 0 0 1 0
2022-08-12 10:21:20 GMT 25.788651 -80.305481 0 357 3 0
2022-08-12 10:21:19 GMT 25.788700 -80.305511 0 357 2 0
2022-08-12 10:21:17 GMT 25.788700 -80.305511 0 357 2 0
2022-08-12 10:21:16 GMT 25.788679 -80.305519 0 357 0 0
2022-08-12 10:21:14 GMT 25.788670 -80.305519 0 356 0 0
2022-08-12 10:21:13 GMT 25.788679 -80.305527 0 358 1 0
2022-08-12 10:21:11 GMT 25.788679 -80.305527 0 2 1 0
2022-08-12 10:21:08 GMT 25.788670 -80.305511 0 4 0 0
2022-08-12 10:21:07 GMT 25.788651 -80.305496 0 1 2 0
2022-08-12 10:21:03 GMT 25.788660 -80.305519 0 350 1 0
2022-08-12 10:21:01 GMT 25.788679 -80.305519 0 350 0 0
2022-08-12 10:21:00 GMT 25.788700 -80.305527 0 350 0 0
2022-08-12 10:20:58 GMT 25.788691 -80.305519 0 350 1 0
2022-08-12 10:20:56 GMT 25.788660 -80.305511 0 350 2 0
2022-08-12 10:20:54 GMT 25.788670 -80.305511 0 348 2 0
2022-08-12 10:20:52 GMT 25.788700 -80.305519 0 348 0 0
2022-08-12 10:20:51 GMT 25.788691 -80.305527 0 348 0 0
2022-08-12 10:20:50 GMT 25.788691 -80.305519 0 348 1 0
2022-08-12 10:20:49 GMT 25.788691 -80.305519 0 349 2 0
2022-08-12 10:20:47 GMT 25.788679 -80.305519 0 349 2 0
2022-08-12 10:20:45 GMT 25.788660 -80.305511 0 352 2 0
2022-08-12 10:20:44 GMT 25.788679 -80.305511 0 357 5 0
2022-08-12 10:20:43 GMT 25.788639 -80.305511 0 342 5 0
2022-08-12 10:20:41 GMT 25.788630 -80.305511 0 333 6 0
2022-08-12 10:20:40 GMT 25.788561 -80.305511 0 317 3 0
2022-08-12 10:20:38 GMT 25.788509 -80.305481 0 318 1 0
2022-08-12 10:20:37 GMT 25.788580 -80.305489 0 313 5 0
2022-08-12 10:20:35 GMT 25.788530 -80.305481 0 293 6 0
2022-08-12 10:20:34 GMT 25.788509 -80.305458 0 283 6 0
2022-08-12 10:20:33 GMT 25.788481 -80.305412 0 273 7 0
2022-08-12 10:20:31 GMT 25.788460 -80.305359 0 273 6 0
2022-08-12 10:20:30 GMT 25.788469 -80.305321 0 273 7 0
2022-08-12 10:20:28 GMT 25.788441 -80.305252 0 274 4 0
2022-08-12 10:20:27 GMT 25.788490 -80.305222 0 286 7 0
2022-08-12 10:20:25 GMT 25.788490 -80.305191 0 282 7 0
2022-08-12 10:20:23 GMT 25.788450 -80.305122 0 258 7 0
2022-08-12 10:20:22 GMT 25.788441 -80.305092 0 254 8 0
2022-08-12 10:20:21 GMT 25.788420 -80.305023 0 258 9 0
2022-08-12 10:20:19 GMT 25.788460 -80.304993 0 267 10 0
2022-08-12 10:20:18 GMT 25.788481 -80.304901 0 270 10 0
2022-08-12 10:20:16 GMT 25.788460 -80.304840 0 271 9 0
2022-08-12 10:20:15 GMT 25.788509 -80.304810 0 279 10 0
2022-08-12 10:20:13 GMT 25.788460 -80.304710 0 258 9 0
2022-08-12 10:20:12 GMT 25.788460 -80.304619 0 258 6 0
2022-08-12 10:20:11 GMT 25.788450 -80.304573 0 260 6 0
2022-08-12 10:20:09 GMT 25.788490 -80.304527 0 277 9 0
2022-08-12 10:20:08 GMT 25.788509 -80.304482 0 279 9 0
2022-08-12 10:20:06 GMT 25.788490 -80.304398 0 272 11 0
2022-08-12 10:20:05 GMT 25.788469 -80.304359 0 268 14 0
2022-08-12 10:20:03 GMT 25.788460 -80.304207 0 257 14 0
2022-08-12 10:20:01 GMT 25.788530 -80.304062 0 273 12 0
2022-08-12 10:19:59 GMT 25.788490 -80.303940 0 261 15 0
2022-08-12 10:19:58 GMT 25.788481 -80.303833 0 258 11 0
2022-08-12 10:19:57 GMT 25.788521 -80.303726 0 268 15 0
2022-08-12 10:19:53 GMT 25.788530 -80.303513 0 267 16 0
2022-08-12 10:19:52 GMT 25.788540 -80.303413 0 272 13 0
2022-08-12 10:19:50 GMT 25.788540 -80.303291 0 271 14 0
2022-08-12 10:19:49 GMT 25.788530 -80.303230 0 269 16 0
2022-08-12 10:19:48 GMT 25.788530 -80.303139 0 270 15 0
2022-08-12 10:19:47 GMT 25.788521 -80.302979 0 268 14 0
2022-08-12 10:19:45 GMT 25.788509 -80.302902 0 262 13 0
2022-08-12 10:19:43 GMT 25.788509 -80.302750 0 250 14 0
2022-08-12 10:19:42 GMT 25.788521 -80.302681 0 247 14 0
2022-08-12 10:19:41 GMT 25.788601 -80.302551 0 268 14 0
2022-08-12 10:19:39 GMT 25.788630 -80.302498 0 274 15 0
2022-08-12 10:19:38 GMT 25.788639 -80.302353 0 277 15 0
2022-08-12 10:19:37 GMT 25.788610 -80.302261 0 274 13 0
2022-08-12 10:19:35 GMT 25.788620 -80.302208 0 277 16 0
2022-08-12 10:19:33 GMT 25.788580 -80.302063 0 270 17 0
2022-08-12 10:19:32 GMT 25.788570 -80.301971 0 264 16 0
2022-08-12 10:19:31 GMT 25.788580 -80.301872 0 266 13 0
2022-08-12 10:19:30 GMT 25.788570 -80.301727 0 263 13 0
2022-08-12 10:19:28 GMT 25.788610 -80.301682 0 270 15 0
2022-08-12 10:19:27 GMT 25.788620 -80.301521 0 275 15 0
2022-08-12 10:19:25 GMT 25.788601 -80.301453 0 269 16 0
2022-08-12 10:19:24 GMT 25.788601 -80.301292 0 272 16 0
2022-08-12 10:19:22 GMT 25.788589 -80.301193 0 266 14 0
2022-08-12 10:19:21 GMT 25.788580 -80.301132 0 262 16 0
2022-08-12 10:19:19 GMT 25.788601 -80.300957 0 264 15 0
2022-08-12 10:19:18 GMT 25.788601 -80.300888 0 261 16 0
2022-08-12 10:19:16 GMT 25.788620 -80.300743 0 261 17 0
2022-08-12 10:19:15 GMT 25.788651 -80.300652 0 268 16 0
2022-08-12 10:19:14 GMT 25.788651 -80.300568 0 268 16 0
2022-08-12 10:19:12 GMT 25.788660 -80.300423 0 271 16 0
2022-08-12 10:19:11 GMT 25.788639 -80.300262 0 263 15 0
2022-08-12 10:19:08 GMT 25.788679 -80.300102 0 274 16 0
2022-08-12 10:19:07 GMT 25.788670 -80.300018 0 270 17 0
2022-08-12 10:19:05 GMT 25.788651 -80.299843 0 260 16 0
2022-08-12 10:19:04 GMT 25.788670 -80.299751 0 261 15 0
2022-08-12 10:19:03 GMT 25.788679 -80.299683 0 264 15 0
2022-08-12 10:19:01 GMT 25.788710 -80.299522 0 272 17 0
2022-08-12 10:19:00 GMT 25.788719 -80.299332 0 278 16 0
2022-08-12 10:18:58 GMT 25.788679 -80.299271 0 265 16 0
2022-08-12 10:18:57 GMT 25.788670 -80.299187 0 262 17 0
2022-08-12 10:18:55 GMT 25.788710 -80.299042 0 268 18 0
2022-08-12 10:18:54 GMT 25.788710 -80.298927 0 268 15 0
2022-08-12 10:18:53 GMT 25.788731 -80.298767 0 277 16 0
2022-08-12 10:18:51 GMT 25.788710 -80.298683 0 270 15 0
2022-08-12 10:18:50 GMT 25.788691 -80.298538 0 264 16 0
2022-08-12 10:18:48 GMT 25.788691 -80.298462 0 263 16 0
2022-08-12 10:18:47 GMT 25.788750 -80.298302 0 277 17 0
2022-08-12 10:18:45 GMT 25.788731 -80.298210 0 274 18 0
2022-08-12 10:18:44 GMT 25.788691 -80.298042 0 259 19 0
2022-08-12 10:18:42 GMT 25.788700 -80.297913 0 256 15 0
2022-08-12 10:18:41 GMT 25.788771 -80.297768 0 271 16 0
2022-08-12 10:18:39 GMT 25.788750 -80.297684 0 268 15 0
2022-08-12 10:18:37 GMT 25.788771 -80.297531 0 270 17 0
2022-08-12 10:18:36 GMT 25.788740 -80.297462 0 265 19 0
2022-08-12 10:18:34 GMT 25.788771 -80.297256 0 268 16 0
2022-08-12 10:18:33 GMT 25.788759 -80.297188 0 265 17 0
2022-08-12 10:18:32 GMT 25.788771 -80.297012 0 266 17 0
2022-08-12 10:18:30 GMT 25.788780 -80.296928 0 266 18 0
2022-08-12 10:18:29 GMT 25.788790 -80.296829 0 270 17 0
2022-08-12 10:18:27 GMT 25.788790 -80.296661 0 267 17 0
2022-08-12 10:18:26 GMT 25.788790 -80.296478 0 263 18 0
2022-08-12 10:18:24 GMT 25.788799 -80.296379 0 264 17 0
2022-08-12 10:18:23 GMT 25.788820 -80.296211 0 264 18 0
2022-08-12 10:18:21 GMT 25.788820 -80.296112 0 262 17 0
2022-08-12 10:18:19 GMT 25.788860 -80.295937 0 268 18 0
2022-08-12 10:18:18 GMT 25.788860 -80.295837 0 267 18 0
2022-08-12 10:18:17 GMT 25.788870 -80.295769 0 269 20 0
2022-08-12 10:18:15 GMT 25.788860 -80.295547 0 266 18 0
2022-08-12 10:18:14 GMT 25.788870 -80.295357 0 269 18 0
2022-08-12 10:18:12 GMT 25.788860 -80.295258 0 267 17 0
2022-08-12 10:18:11 GMT 25.788879 -80.295189 0 273 19 0
2022-08-12 10:18:09 GMT 25.788870 -80.294998 0 270 21 0
2022-08-12 10:18:08 GMT 25.788851 -80.294777 0 258 17 0
2022-08-12 10:18:06 GMT 25.788860 -80.294693 0 257 18 0
2022-08-12 10:18:04 GMT 25.788919 -80.294510 0 271 18 0
2022-08-12 10:18:03 GMT 25.788919 -80.294411 0 270 17 0
2022-08-12 10:18:01 GMT 25.788931 -80.294228 0 275 19 0
2022-08-12 10:17:58 GMT 25.788910 -80.293961 0 269 19 0
2022-08-12 10:17:57 GMT 25.788910 -80.293747 0 268 17 0
2022-08-12 10:17:55 GMT 25.788919 -80.293663 0 268 17 0
2022-08-12 10:17:54 GMT 25.788900 -80.293480 0 257 16 0
2022-08-12 10:17:52 GMT 25.788950 -80.293404 0 273 14 0
2022-08-12 10:17:50 GMT 25.788940 -80.293251 0 277 17 0
2022-08-12 10:17:49 GMT 25.788919 -80.293167 0 272 17 0
2022-08-12 10:17:48 GMT 25.788879 -80.293068 0 255 15 0
2022-08-12 10:17:46 GMT 25.788931 -80.292908 0 265 15 0
2022-08-12 10:17:45 GMT 25.788931 -80.292839 0 262 16 0
2022-08-12 10:17:44 GMT 25.788940 -80.292686 0 263 17 0
2022-08-12 10:17:42 GMT 25.788980 -80.292587 0 274 15 0
2022-08-12 10:17:41 GMT 25.788971 -80.292519 0 270 15 0
2022-08-12 10:17:39 GMT 25.788950 -80.292358 0 264 16 0
2022-08-12 10:17:38 GMT 25.788950 -80.292259 0 261 15 0
2022-08-12 10:17:36 GMT 25.788971 -80.292107 0 264 16 0
2022-08-12 10:17:35 GMT 25.788971 -80.292030 0 263 17 0
2022-08-12 10:17:34 GMT 25.789000 -80.291931 0 268 16 0
2022-08-12 10:17:32 GMT 25.788980 -80.291786 0 262 17 0
2022-08-12 10:17:31 GMT 25.788990 -80.291710 0 263 18 0
2022-08-12 10:17:29 GMT 25.789009 -80.291519 0 269 17 0
2022-08-12 10:17:28 GMT 25.789021 -80.291428 0 270 17 0
2022-08-12 10:17:26 GMT 25.789021 -80.291267 0 271 16 0
2022-08-12 10:17:24 GMT 25.788990 -80.291100 0 261 17 0
2022-08-12 10:17:23 GMT 25.788990 -80.291031 0 259 20 0
2022-08-12 10:17:21 GMT 25.789030 -80.290840 0 265 19 0
2022-08-12 10:17:20 GMT 25.789030 -80.290733 0 262 17 0
2022-08-12 10:17:18 GMT 25.789061 -80.290550 0 262 18 0
2022-08-12 10:17:17 GMT 25.789061 -80.290459 0 257 17 0
2022-08-12 10:17:16 GMT 25.789089 -80.290298 0 256 19 0
2022-08-12 10:17:14 GMT 25.789110 -80.290199 0 257 18 0
2022-08-12 10:17:12 GMT 25.789160 -80.290009 0 257 16 0
2022-08-12 10:17:11 GMT 25.789181 -80.289917 0 254 16 0
2022-08-12 10:17:09 GMT 25.789240 -80.289673 0 259 18 0
2022-08-12 10:17:08 GMT 25.789261 -80.289574 0 258 16 0
2022-08-12 10:17:06 GMT 25.789289 -80.289413 0 251 15 0
2022-08-12 10:17:04 GMT 25.789280 -80.289330 0 241 15 0
2022-08-12 10:17:02 GMT 25.789360 -80.289192 0 246 11 0
2022-08-12 10:17:01 GMT 25.789391 -80.289146 0 251 13 0
2022-08-12 10:17:00 GMT 25.789410 -80.289078 0 244 12 0
2022-08-12 10:16:59 GMT 25.789431 -80.288986 0 230 14 0
2022-08-12 10:16:57 GMT 25.789459 -80.288933 0 220 13 0
2022-08-12 10:16:55 GMT 25.789551 -80.288834 0 201 11 0
2022-08-12 10:16:54 GMT 25.789570 -80.288773 0 196 13 0
2022-08-12 10:16:53 GMT 25.789700 -80.288727 0 181 14 0
2022-08-12 10:16:51 GMT 25.789780 -80.288696 0 170 12 0
2022-08-12 10:16:50 GMT 25.789820 -80.288712 0 169 14 0
2022-08-12 10:16:48 GMT 25.789940 -80.288719 0 169 16 0
2022-08-12 10:16:47 GMT 25.790010 -80.288757 0 179 16 0
2022-08-12 10:16:45 GMT 25.790140 -80.288757 0 178 19 0
2022-08-12 10:16:44 GMT 25.790220 -80.288780 0 183 19 0
2022-08-12 10:16:42 GMT 25.790409 -80.288757 0 181 16 0
2022-08-12 10:16:41 GMT 25.790489 -80.288742 0 170 17 0
2022-08-12 10:16:39 GMT 25.790640 -80.288757 0 168 19 0
2022-08-12 10:16:37 GMT 25.790800 -80.288811 0 179 19 0
2022-08-12 10:16:36 GMT 25.790890 -80.288818 0 182 19 0
2022-08-12 10:16:35 GMT 25.791040 -80.288811 0 181 22 0
2022-08-12 10:16:33 GMT 25.791149 -80.288788 0 174 21 0
2022-08-12 10:16:32 GMT 25.791380 -80.288811 0 177 18 0
2022-08-12 10:16:30 GMT 25.791451 -80.288841 0 184 18 0
2022-08-12 10:16:29 GMT 25.791540 -80.288818 0 180 17 0
2022-08-12 10:16:27 GMT 25.791710 -80.288803 0 177 18 0
2022-08-12 10:16:26 GMT 25.791790 -80.288811 0 176 19 0
2022-08-12 10:16:25 GMT 25.791870 -80.288811 0 176 18 0
2022-08-12 10:16:23 GMT 25.792030 -80.288818 0 180 20 0
2022-08-12 10:16:22 GMT 25.792120 -80.288834 0 182 20 0
2022-08-12 10:16:20 GMT 25.792320 -80.288818 0 182 18 0
2022-08-12 10:16:19 GMT 25.792400 -80.288811 0 179 18 0
2022-08-12 10:16:17 GMT 25.792580 -80.288811 0 179 17 0
2022-08-12 10:16:16 GMT 25.792650 -80.288803 0 175 18 0
2022-08-12 10:16:15 GMT 25.792730 -80.288834 0 183 18 0
2022-08-12 10:16:14 GMT 25.792910 -80.288811 0 177 17 0
2022-08-12 10:16:12 GMT 25.792980 -80.288811 0 175 18 0
2022-08-12 10:16:11 GMT 25.793079 -80.288811 0 171 16 0
2022-08-12 10:16:09 GMT 25.793221 -80.288841 0 176 16 0
2022-08-12 10:16:08 GMT 25.793289 -80.288841 0 177 17 0
2022-08-12 10:16:06 GMT 25.793470 -80.288849 0 181 16 0
2022-08-12 10:16:05 GMT 25.793539 -80.288849 0 179 17 0
2022-08-12 10:16:04 GMT 25.793699 -80.288849 0 172 16 0
2022-08-12 10:16:02 GMT 25.793770 -80.288849 0 172 16 0
2022-08-12 10:16:00 GMT 25.793921 -80.288872 0 173 16 0
2022-08-12 10:15:59 GMT 25.794001 -80.288879 0 174 16 0
2022-08-12 10:15:58 GMT 25.794130 -80.288910 0 180 17 0
2022-08-12 10:15:56 GMT 25.794210 -80.288918 0 183 17 0
2022-08-12 10:15:55 GMT 25.794390 -80.288902 0 176 14 0
2022-08-12 10:15:53 GMT 25.794460 -80.288887 0 174 14 0
2022-08-12 10:15:52 GMT 25.794571 -80.288910 0 172 16 0
2022-08-12 10:15:50 GMT 25.794630 -80.288940 0 182 18 0
2022-08-12 10:15:49 GMT 25.794809 -80.288918 0 178 17 0
2022-08-12 10:15:47 GMT 25.794889 -80.288918 0 174 17 0
2022-08-12 10:15:45 GMT 25.795059 -80.288933 0 177 14 0
2022-08-12 10:15:43 GMT 25.795170 -80.288948 0 186 17 0
2022-08-12 10:15:42 GMT 25.795271 -80.288910 0 172 15 0
2022-08-12 10:15:41 GMT 25.795340 -80.288910 0 168 15 0
2022-08-12 10:15:39 GMT 25.795460 -80.288948 0 180 15 0
2022-08-12 10:15:38 GMT 25.795509 -80.288971 0 186 17 0
2022-08-12 10:15:36 GMT 25.795670 -80.288948 0 176 15 0
2022-08-12 10:15:35 GMT 25.795740 -80.288948 0 178 16 0
2022-08-12 10:15:34 GMT 25.795820 -80.288948 0 178 15 0
2022-08-12 10:15:32 GMT 25.795950 -80.288948 0 176 13 0
2022-08-12 10:15:31 GMT 25.796040 -80.288971 0 174 11 0
2022-08-12 10:15:30 GMT 25.796061 -80.288948 0 171 15 0
2022-08-12 10:15:28 GMT 25.796200 -80.288979 0 182 13 0
2022-08-12 10:15:27 GMT 25.796261 -80.288979 0 180 14 0
2022-08-12 10:15:25 GMT 25.796379 -80.288979 0 174 14 0
2022-08-12 10:15:24 GMT 25.796459 -80.288986 0 177 12 0
2022-08-12 10:15:23 GMT 25.796570 -80.288986 0 173 12 0
2022-08-12 10:15:21 GMT 25.796631 -80.289001 0 175 12 0
2022-08-12 10:15:20 GMT 25.796671 -80.289001 0 176 14 0
2022-08-12 10:15:19 GMT 25.796749 -80.289017 0 182 12 0
2022-08-12 10:15:17 GMT 25.796860 -80.289009 0 174 12 0
2022-08-12 10:15:16 GMT 25.796930 -80.289001 0 170 11 0
2022-08-12 10:15:15 GMT 25.797010 -80.289040 0 183 11 0
2022-08-12 10:15:13 GMT 25.797079 -80.289040 0 184 10 0
2022-08-12 10:15:12 GMT 25.797171 -80.289017 0 177 10 0
2022-08-12 10:15:10 GMT 25.797260 -80.289032 0 177 11 0
2022-08-12 10:15:08 GMT 25.797359 -80.289032 0 177 12 0
2022-08-12 10:15:06 GMT 25.797430 -80.289047 0 184 10 0
2022-08-12 10:15:05 GMT 25.797529 -80.289040 0 176 7 0
2022-08-12 10:15:02 GMT 25.797609 -80.289040 0 174 10 0
2022-08-12 10:15:00 GMT 25.797670 -80.289047 0 179 9 0
2022-08-12 10:14:59 GMT 25.797770 -80.289062 0 181 8 0
2022-08-12 10:14:57 GMT 25.797840 -80.289070 0 178 9 0
2022-08-12 10:14:55 GMT 25.797880 -80.289047 0 168 9 0
2022-08-12 10:14:54 GMT 25.797930 -80.289040 0 162 9 0
2022-08-12 10:14:52 GMT 25.798010 -80.289078 0 183 9 0
2022-08-12 10:14:51 GMT 25.798031 -80.289093 0 180 11 0
2022-08-12 10:14:50 GMT 25.798130 -80.289070 0 172 10 0
2022-08-12 10:14:48 GMT 25.798161 -80.289070 0 172 12 0
2022-08-12 10:14:47 GMT 25.798309 -80.289101 0 174 7 0
2022-08-12 10:14:45 GMT 25.798321 -80.289093 0 177 9 0
2022-08-12 10:14:44 GMT 25.798401 -80.289108 0 181 10 0
2022-08-12 10:14:42 GMT 25.798441 -80.289124 0 183 11 0
2022-08-12 10:14:41 GMT 25.798491 -80.289108 0 180 11 0
2022-08-12 10:14:39 GMT 25.798590 -80.289108 0 179 10 0
2022-08-12 10:14:38 GMT 25.798639 -80.289101 0 170 10 0
2022-08-12 10:14:36 GMT 25.798740 -80.289108 0 174 11 0
2022-08-12 10:14:35 GMT 25.798809 -80.289131 0 189 13 0
2022-08-12 10:14:33 GMT 25.798880 -80.289139 0 198 12 0
2022-08-12 10:14:32 GMT 25.798920 -80.289108 0 196 13 0
2022-08-12 10:14:31 GMT 25.799049 -80.289093 0 213 12 0
2022-08-12 10:14:29 GMT 25.799080 -80.289078 0 222 13 0
2022-08-12 10:14:27 GMT 25.799179 -80.288986 0 238 12 0
2022-08-12 10:14:26 GMT 25.799271 -80.288902 0 261 11 0
2022-08-12 10:14:24 GMT 25.799311 -80.288849 0 272 11 0
2022-08-12 10:14:23 GMT 25.799299 -80.288727 0 267 12 0
2022-08-12 10:14:21 GMT 25.799299 -80.288658 0 268 11 0
2022-08-12 10:14:20 GMT 25.799311 -80.288597 0 269 10 0
2022-08-12 10:14:18 GMT 25.799299 -80.288498 0 266 10 0
2022-08-12 10:14:17 GMT 25.799311 -80.288422 0 268 6 0
2022-08-12 10:14:16 GMT 25.799299 -80.288391 0 261 7 0
2022-08-12 10:14:15 GMT 25.799311 -80.288322 0 259 6 0
2022-08-12 10:14:13 GMT 25.799320 -80.288277 0 263 6 0
2022-08-12 10:14:12 GMT 25.799330 -80.288254 0 262 5 0
2022-08-12 10:14:10 GMT 25.799330 -80.288200 0 270 6 0
2022-08-12 10:14:09 GMT 25.799339 -80.288147 0 273 5 0
2022-08-12 10:14:07 GMT 25.799330 -80.288116 0 264 5 0
2022-08-12 10:14:06 GMT 25.799320 -80.288101 0 265 6 0
2022-08-12 10:14:04 GMT 25.799330 -80.288071 0 262 8 0
2022-08-12 10:14:03 GMT 25.799320 -80.288040 0 257 9 0
2022-08-12 10:14:01 GMT 25.799330 -80.287949 0 264 6 0
2022-08-12 10:14:00 GMT 25.799351 -80.287903 0 271 11 0
2022-08-12 10:13:58 GMT 25.799339 -80.287857 0 267 12 0
2022-08-12 10:13:57 GMT 25.799339 -80.287788 0 264 11 0
2022-08-12 10:13:55 GMT 25.799351 -80.287689 0 269 11 0
2022-08-12 10:13:54 GMT 25.799351 -80.287590 0 269 12 0
2022-08-12 10:13:52 GMT 25.799351 -80.287529 0 270 12 0
2022-08-12 10:13:50 GMT 25.799360 -80.287422 0 273 13 0
2022-08-12 10:13:49 GMT 25.799370 -80.287354 0 274 13 0
2022-08-12 10:13:48 GMT 25.799330 -80.287201 0 265 11 0
2022-08-12 10:13:46 GMT 25.799320 -80.287140 0 263 12 0
2022-08-12 10:13:44 GMT 25.799370 -80.287033 0 271 13 0
2022-08-12 10:13:43 GMT 25.799330 -80.286903 0 262 13 0
2022-08-12 10:13:41 GMT 25.799351 -80.286842 0 265 13 0
2022-08-12 10:13:39 GMT 25.799370 -80.286697 0 264 12 0
2022-08-12 10:13:38 GMT 25.799351 -80.286629 0 263 12 0
2022-08-12 10:13:36 GMT 25.799379 -80.286499 0 264 12 0
2022-08-12 10:13:35 GMT 25.799370 -80.286438 0 263 11 0
2022-08-12 10:13:33 GMT 25.799391 -80.286331 0 266 13 0
2022-08-12 10:13:32 GMT 25.799391 -80.286270 0 266 13 0
2022-08-12 10:13:31 GMT 25.799410 -80.286140 0 271 13 0
2022-08-12 10:13:29 GMT 25.799410 -80.286003 0 270 11 0
2022-08-12 10:13:27 GMT 25.799400 -80.285942 0 267 11 0
2022-08-12 10:13:26 GMT 25.799410 -80.285889 0 269 11 0
2022-08-12 10:13:24 GMT 25.799391 -80.285759 0 265 11 0
2022-08-12 10:13:23 GMT 25.799410 -80.285698 0 265 11 0
2022-08-12 10:13:22 GMT 25.799400 -80.285637 0 263 10 0
2022-08-12 10:13:20 GMT 25.799419 -80.285538 0 267 10 0
2022-08-12 10:13:19 GMT 25.799431 -80.285500 0 271 11 0
2022-08-12 10:13:18 GMT 25.799450 -80.285439 0 276 11 0
2022-08-12 10:13:16 GMT 25.799431 -80.285316 0 274 10 0
2022-08-12 10:13:15 GMT 25.799410 -80.285210 0 266 8 0
2022-08-12 10:13:13 GMT 25.799400 -80.285172 0 264 8 0
2022-08-12 10:13:12 GMT 25.799419 -80.285088 0 263 8 0
2022-08-12 10:13:10 GMT 25.799410 -80.285042 0 255 7 0
2022-08-12 10:13:08 GMT 25.799419 -80.284973 0 262 8 0
2022-08-12 10:13:06 GMT 25.799450 -80.284912 0 270 9 0
2022-08-12 10:13:05 GMT 25.799450 -80.284866 0 271 10 0
2022-08-12 10:13:03 GMT 25.799450 -80.284760 0 272 8 0
2022-08-12 10:13:02 GMT 25.799450 -80.284714 0 267 8 0
2022-08-12 10:13:00 GMT 25.799419 -80.284637 0 256 9 0
2022-08-12 10:12:59 GMT 25.799440 -80.284576 0 258 8 0
2022-08-12 10:12:57 GMT 25.799450 -80.284523 0 261 10 0
2022-08-12 10:12:56 GMT 25.799471 -80.284447 0 270 8 0
2022-08-12 10:12:54 GMT 25.799490 -80.284378 0 276 9 0
2022-08-12 10:12:53 GMT 25.799480 -80.284340 0 269 10 0
2022-08-12 10:12:51 GMT 25.799459 -80.284241 0 264 9 0
2022-08-12 10:12:50 GMT 25.799471 -80.284187 0 265 9 0
2022-08-12 10:12:48 GMT 25.799471 -80.284119 0 264 11 0
2022-08-12 10:12:47 GMT 25.799480 -80.284050 0 269 9 0
2022-08-12 10:12:46 GMT 25.799500 -80.283951 0 280 9 0
2022-08-12 10:12:44 GMT 25.799500 -80.283897 0 276 8 0
2022-08-12 10:12:43 GMT 25.799459 -80.283867 0 266 10 0
2022-08-12 10:12:41 GMT 25.799471 -80.283760 0 261 8 0
2022-08-12 10:12:40 GMT 25.799471 -80.283684 0 263 11 0
2022-08-12 10:12:38 GMT 25.799500 -80.283623 0 270 10 0
2022-08-12 10:12:37 GMT 25.799509 -80.283524 0 273 7 0
2022-08-12 10:12:35 GMT 25.799500 -80.283493 0 270 9 0
2022-08-12 10:12:34 GMT 25.799500 -80.283447 0 271 11 0
2022-08-12 10:12:32 GMT 25.799490 -80.283333 0 269 10 0
2022-08-12 10:12:31 GMT 25.799480 -80.283287 0 268 11 0
2022-08-12 10:12:29 GMT 25.799490 -80.283188 0 267 12 0
2022-08-12 10:12:28 GMT 25.799490 -80.283119 0 261 11 0
2022-08-12 10:12:27 GMT 25.799480 -80.283012 0 258 12 0
2022-08-12 10:12:25 GMT 25.799500 -80.282951 0 262 11 0
2022-08-12 10:12:24 GMT 25.799530 -80.282829 0 267 11 0
2022-08-12 10:12:22 GMT 25.799520 -80.282768 0 267 10 0
2022-08-12 10:12:20 GMT 25.799540 -80.282677 0 273 11 0
2022-08-12 10:12:19 GMT 25.799530 -80.282631 0 269 11 0
2022-08-12 10:12:18 GMT 25.799520 -80.282516 0 260 11 0
2022-08-12 10:12:16 GMT 25.799530 -80.282471 0 265 12 0
2022-08-12 10:12:15 GMT 25.799549 -80.282410 0 268 12 0
2022-08-12 10:12:13 GMT 25.799570 -80.282303 0 272 13 0
2022-08-12 10:12:12 GMT 25.799520 -80.282158 0 261 14 0
2022-08-12 10:12:10 GMT 25.799549 -80.282089 0 268 13 0
2022-08-12 10:12:09 GMT 25.799561 -80.281952 0 273 10 0
2022-08-12 10:12:07 GMT 25.799561 -80.281898 0 272 10 0
2022-08-12 10:12:06 GMT 25.799549 -80.281853 0 264 10 0
2022-08-12 10:12:04 GMT 25.799540 -80.281761 0 264 15 0
2022-08-12 10:12:03 GMT 25.799549 -80.281677 0 267 13 0
2022-08-12 10:12:02 GMT 25.799549 -80.281601 0 266 12 0
2022-08-12 10:12:00 GMT 25.799570 -80.281479 0 268 13 0
2022-08-12 10:11:59 GMT 25.799561 -80.281410 0 266 13 0
2022-08-12 10:11:58 GMT 25.799561 -80.281281 0 262 12 0
2022-08-12 10:11:56 GMT 25.799580 -80.281227 0 267 13 0
2022-08-12 10:11:55 GMT 25.799589 -80.281158 0 269 13 0
2022-08-12 10:11:53 GMT 25.799580 -80.281021 0 268 13 0
2022-08-12 10:11:52 GMT 25.799601 -80.280937 0 272 11 0
2022-08-12 10:11:50 GMT 25.799570 -80.280830 0 261 10 0
2022-08-12 10:11:49 GMT 25.799589 -80.280792 0 264 12 0
2022-08-12 10:11:48 GMT 25.799589 -80.280762 0 262 15 0
2022-08-12 10:11:46 GMT 25.799610 -80.280609 0 265 15 0
2022-08-12 10:11:45 GMT 25.799589 -80.280510 0 258 14 0
2022-08-12 10:11:44 GMT 25.799641 -80.280373 0 273 13 0
2022-08-12 10:11:42 GMT 25.799650 -80.280319 0 277 14 0
2022-08-12 10:11:41 GMT 25.799629 -80.280228 0 267 12 0
2022-08-12 10:11:39 GMT 25.799620 -80.280098 0 263 12 0
2022-08-12 10:11:38 GMT 25.799650 -80.280052 0 268 13 0
2022-08-12 10:11:36 GMT 25.799660 -80.279907 0 270 14 0
2022-08-12 10:11:35 GMT 25.799629 -80.279831 0 260 14 0
2022-08-12 10:11:34 GMT 25.799650 -80.279762 0 265 14 0
2022-08-12 10:11:31 GMT 25.799660 -80.279556 0 262 15 0
2022-08-12 10:11:29 GMT 25.799681 -80.279411 0 265 15 0
2022-08-12 10:11:28 GMT 25.799700 -80.279327 0 270 14 0
2022-08-12 10:11:27 GMT 25.799700 -80.279198 0 268 15 0
2022-08-12 10:11:25 GMT 25.799681 -80.279114 0 261 14 0
2022-08-12 10:11:23 GMT 25.799700 -80.278976 0 265 14 0
2022-08-12 10:11:22 GMT 25.799721 -80.278908 0 269 14 0
2022-08-12 10:11:21 GMT 25.799709 -80.278748 0 264 14 0
2022-08-12 10:11:19 GMT 25.799700 -80.278702 0 261 16 0
2022-08-12 10:11:18 GMT 25.799721 -80.278603 0 262 14 0
2022-08-12 10:11:17 GMT 25.799761 -80.278374 0 276 15 0
2022-08-12 10:11:14 GMT 25.799749 -80.278290 0 275 14 0
2022-08-12 10:11:13 GMT 25.799740 -80.278160 0 272 17 0
2022-08-12 10:11:11 GMT 25.799740 -80.278091 0 271 19 0
2022-08-12 10:11:10 GMT 25.799709 -80.277977 0 266 17 0
2022-08-12 10:11:09 GMT 25.799709 -80.277802 0 259 15 0
2022-08-12 10:11:07 GMT 25.799721 -80.277733 0 261 16 0
2022-08-12 10:11:06 GMT 25.799749 -80.277573 0 269 15 0
2022-08-12 10:11:04 GMT 25.799761 -80.277489 0 269 15 0
2022-08-12 10:11:03 GMT 25.799749 -80.277321 0 263 14 0
2022-08-12 10:11:01 GMT 25.799780 -80.277237 0 270 13 0
2022-08-12 10:11:00 GMT 25.799789 -80.277199 0 271 16 0
2022-08-12 10:10:58 GMT 25.799770 -80.277008 0 265 15 0
2022-08-12 10:10:57 GMT 25.799780 -80.276848 0 266 13 0
2022-08-12 10:10:55 GMT 25.799789 -80.276779 0 269 13 0
2022-08-12 10:10:53 GMT 25.799801 -80.276657 0 270 15 0
2022-08-12 10:10:52 GMT 25.799801 -80.276550 0 271 11 0
2022-08-12 10:10:50 GMT 25.799789 -80.276451 0 266 11 0
2022-08-12 10:10:49 GMT 25.799780 -80.276382 0 262 10 0
2022-08-12 10:10:48 GMT 25.799801 -80.276299 0 270 13 0
2022-08-12 10:10:46 GMT 25.799810 -80.276199 0 267 8 0
2022-08-12 10:10:45 GMT 25.799801 -80.276169 0 261 8 0
2022-08-12 10:10:43 GMT 25.799810 -80.276093 0 267 7 0
2022-08-12 10:10:41 GMT 25.799789 -80.276009 0 262 6 0
2022-08-12 10:10:40 GMT 25.799810 -80.275970 0 263 5 0
2022-08-12 10:10:38 GMT 25.799801 -80.275902 0 255 5 0
2022-08-12 10:10:37 GMT 25.799810 -80.275871 0 264 5 0
2022-08-12 10:10:35 GMT 25.799820 -80.275848 0 262 9 0
2022-08-12 10:10:34 GMT 25.799810 -80.275833 0 259 12 0
2022-08-12 10:10:33 GMT 25.799829 -80.275688 0 256 8 0
2022-08-12 10:10:31 GMT 25.799841 -80.275642 0 256 7 0
2022-08-12 10:10:29 GMT 25.799860 -80.275574 0 258 7 0
2022-08-12 10:10:28 GMT 25.799860 -80.275543 0 257 8 0
2022-08-12 10:10:26 GMT 25.799870 -80.275459 0 250 8 0
2022-08-12 10:10:25 GMT 25.799870 -80.275414 0 247 8 0
2022-08-12 10:10:23 GMT 25.799910 -80.275352 0 255 9 0
2022-08-12 10:10:22 GMT 25.799919 -80.275299 0 252 8 0
2022-08-12 10:10:20 GMT 25.799910 -80.275208 0 230 7 0
2022-08-12 10:10:19 GMT 25.799919 -80.275192 0 224 8 0
2022-08-12 10:10:18 GMT 25.799950 -80.275146 0 220 7 0
2022-08-12 10:10:16 GMT 25.799980 -80.275070 0 203 7 0
2022-08-12 10:10:15 GMT 25.800011 -80.275063 0 203 7 0
2022-08-12 10:10:14 GMT 25.800060 -80.275017 0 194 9 0
2022-08-12 10:10:12 GMT 25.800110 -80.275002 0 192 8 0
2022-08-12 10:10:11 GMT 25.800171 -80.274963 0 181 8 0
2022-08-12 10:10:09 GMT 25.800220 -80.274963 0 181 6 0
2022-08-12 10:10:07 GMT 25.800301 -80.274948 0 167 5 0
2022-08-12 10:10:06 GMT 25.800341 -80.274963 0 166 5 0
2022-08-12 10:10:04 GMT 25.800350 -80.274963 0 167 6 0
2022-08-12 10:10:03 GMT 25.800381 -80.274971 0 168 5 0
2022-08-12 10:10:02 GMT 25.800440 -80.274986 0 168 4 0
2022-08-12 10:10:00 GMT 25.800470 -80.274986 0 160 4 0
2022-08-12 10:09:58 GMT 25.800501 -80.275002 0 164 4 0
2022-08-12 10:09:56 GMT 25.800529 -80.275017 0 171 4 0
2022-08-12 10:09:55 GMT 25.800550 -80.275009 0 171 3 0
2022-08-12 10:09:53 GMT 25.800579 -80.275017 0 170 3 0
2022-08-12 10:09:52 GMT 25.800610 -80.275032 0 171 2 0
2022-08-12 10:09:50 GMT 25.800610 -80.275017 0 168 5 0
2022-08-12 10:09:48 GMT 25.800631 -80.275032 0 172 7 0
2022-08-12 10:09:46 GMT 25.800699 -80.275047 0 169 7 0
2022-08-12 10:09:45 GMT 25.800760 -80.275032 0 158 8 0
2022-08-12 10:09:43 GMT 25.800791 -80.275047 0 161 8 0
2022-08-12 10:09:42 GMT 25.800859 -80.275093 0 153 7 0
2022-08-12 10:09:40 GMT 25.800890 -80.275070 0 142 10 0
2022-08-12 10:09:39 GMT 25.800940 -80.275108 0 147 8 0
2022-08-12 10:09:37 GMT 25.800949 -80.275177 0 152 13 0
2022-08-12 10:09:36 GMT 25.801001 -80.275208 0 151 15 0
2022-08-12 10:09:35 GMT 25.801100 -80.275269 0 142 17 0
2022-08-12 10:09:33 GMT 25.801130 -80.275322 0 139 20 0
2022-08-12 10:09:32 GMT 25.801270 -80.275436 0 128 21 0
2022-08-12 10:09:30 GMT 25.801399 -80.275574 0 114 22 0
2022-08-12 10:09:28 GMT 25.801470 -80.275650 0 106 24 0
2022-08-12 10:09:27 GMT 25.801550 -80.275909 0 105 20 0
2022-08-12 10:09:25 GMT 25.801571 -80.276031 0 106 20 0
2022-08-12 10:09:23 GMT 25.801620 -80.276260 0 101 20 0
2022-08-12 10:09:22 GMT 25.801640 -80.276382 0 98 21 0
2022-08-12 10:09:21 GMT 25.801689 -80.276588 0 91 25 0
2022-08-12 10:09:19 GMT 25.801680 -80.276718 0 92 28 0
2022-08-12 10:09:18 GMT 25.801701 -80.276863 0 90 31 0
2022-08-12 10:09:17 GMT 25.801710 -80.277184 0 86 38 0
2022-08-12 10:09:15 GMT 25.801710 -80.277382 0 86 41 0
2022-08-12 10:09:14 GMT 25.801680 -80.277817 0 86 46 0
2022-08-12 10:09:12 GMT 25.801680 -80.278038 0 86 51 0
2022-08-12 10:09:10 GMT 25.801630 -80.278587 0 87 58 0
2022-08-12 10:09:09 GMT 25.801620 -80.279167 0 86 67 0
2022-08-12 10:09:07 GMT 25.801580 -80.279877 0 86 74 0
2022-08-12 10:09:05 GMT 25.801559 -80.280251 0 87 78 -32
2022-08-12 10:09:04 GMT 25.801550 -80.280647 0 87 82 -32
2022-08-12 10:09:02 GMT 25.801519 -80.281433 0 87 94 -32
2022-08-12 10:09:01 GMT 25.801500 -80.281914 -100 87 97 -32
2022-08-12 10:09:00 GMT 25.801451 -80.282860 -100 87 105 -32
2022-08-12 10:08:57 GMT 25.801430 -80.283897 -100 86 113 -192
2022-08-12 10:08:56 GMT 25.801359 -80.285049 -100 88 111 -192
2022-08-12 10:08:54 GMT 25.801331 -80.285622 -100 88 112 -192
2022-08-12 10:08:52 GMT 25.801300 -80.286774 -100 87 115 -192
2022-08-12 10:08:51 GMT 25.801291 -80.287369 -100 87 115 32
2022-08-12 10:08:49 GMT 25.801220 -80.288559 -100 88 117 32
2022-08-12 10:08:48 GMT 25.801220 -80.289139 -125 87 119 32
2022-08-12 10:08:47 GMT 25.801189 -80.290382 -125 87 120 -64
2022-08-12 10:08:45 GMT 25.801161 -80.290993 -125 87 122 -64
2022-08-12 10:08:44 GMT 25.801130 -80.291580 -125 87 128 -64
2022-08-12 10:08:43 GMT 25.801109 -80.292252 -125 86 125 544
2022-08-12 10:08:41 GMT 25.801050 -80.293518 -125 87 127 544
2022-08-12 10:08:39 GMT 25.801001 -80.294830 -125 86 131 544
2022-08-12 10:08:38 GMT 25.800961 -80.295502 -125 86 132 0
2022-08-12 10:08:37 GMT 25.800871 -80.296829 -150 87 135 -256
2022-08-12 10:08:35 GMT 25.800850 -80.297508 -150 87 136 -256
2022-08-12 10:08:34 GMT 25.800819 -80.298203 -125 87 138 -256
2022-08-12 10:08:33 GMT 25.800779 -80.299622 -100 87 135 -256
2022-08-12 10:08:31 GMT 25.800751 -80.300308 -75 87 135 -256
2022-08-12 10:08:30 GMT 25.800699 -80.301689 -50 86 138 -256
2022-08-12 10:08:28 GMT 25.800680 -80.302399 0 86 137 -256
2022-08-12 10:08:26 GMT 25.800619 -80.303810 25 86 134 -256
2022-08-12 10:08:25 GMT 25.800570 -80.304459 25 86 138 -256
2022-08-12 10:08:23 GMT 25.800529 -80.305893 50 87 138 -256
2022-08-12 10:08:22 GMT 25.800470 -80.306587 75 90 138 -256
2022-08-12 10:08:20 GMT 25.800470 -80.308006 75 88 138 -256
2022-08-12 10:08:19 GMT 25.800470 -80.308723 100 87 137 -256
2022-08-12 10:08:18 GMT 25.800440 -80.309410 100 88 138 -256
2022-08-12 10:08:16 GMT 25.800421 -80.310806 150 86 141 -256
2022-08-12 10:08:15 GMT 25.800400 -80.311577 150 85 132 -256
2022-08-12 10:08:14 GMT 25.800280 -80.312889 150 87 142 -256
2022-08-12 10:08:12 GMT 25.800230 -80.314331 175 86 138 -256
2022-08-12 10:08:10 GMT 25.800140 -80.314949 200 89 148 -256
2022-08-12 10:08:09 GMT 25.800159 -80.315773 200 87 137 -256
2022-08-12 10:08:07 GMT 25.800100 -80.317146 300 87 140 -256
2022-08-12 10:08:06 GMT 25.800079 -80.317879 300 87 137 -256
2022-08-12 10:08:04 GMT 25.800039 -80.319313 300 85 137 -256
2022-08-12 10:08:03 GMT 25.799931 -80.320686 300 86 140 -256
2022-08-12 10:08:02 GMT 25.799801 -80.321404 300 90 136 -256
2022-08-12 10:08:00 GMT 25.799870 -80.322128 300 87 136 -256
2022-08-12 10:07:59 GMT 25.799829 -80.323547 325 85 138 -256
2022-08-12 10:07:57 GMT 25.799749 -80.324310 400 87 132 -256
2022-08-12 10:07:56 GMT 25.799721 -80.324982 400 86 133 -256
2022-08-12 10:07:54 GMT 25.799669 -80.326370 400 87 135 -256
2022-08-12 10:07:53 GMT 25.799601 -80.327744 400 87 135 -256
2022-08-12 10:07:51 GMT 25.799570 -80.328400 400 88 138 -256
2022-08-12 10:07:50 GMT 25.799549 -80.329140 450 87 135 -256
2022-08-12 10:07:48 GMT 25.799520 -80.330513 450 86 138 -256
2022-08-12 10:07:46 GMT 25.799400 -80.332649 525 87 134 -256
2022-08-12 10:07:44 GMT 25.799360 -80.333321 525 87 135 -256
2022-08-12 10:07:42 GMT 25.799311 -80.334686 525 86 138 -256
2022-08-12 10:07:41 GMT 25.799280 -80.335419 600 85 137 -256
2022-08-12 10:07:39 GMT 25.799150 -80.336807 600 88 138 -256
2022-08-12 10:07:38 GMT 25.799129 -80.337517 600 88 138 -256
2022-08-12 10:07:37 GMT 25.799110 -80.338921 600 85 140 -768
2022-08-12 10:07:35 GMT 25.799040 -80.339622 600 87 140 -768
2022-08-12 10:07:33 GMT 25.798981 -80.341057 625 86 140 -768
2022-08-12 10:07:32 GMT 25.798901 -80.341789 625 88 139 -768
2022-08-12 10:07:31 GMT 25.798910 -80.343231 700 86 138 -768
2022-08-12 10:07:29 GMT 25.798861 -80.343933 700 87 138 -768
2022-08-12 10:07:27 GMT 25.798780 -80.345329 800 88 140 -768
2022-08-12 10:07:26 GMT 25.798750 -80.346771 800 88 140 -768
2022-08-12 10:07:24 GMT 25.798719 -80.347488 800 88 139 -768
2022-08-12 10:07:23 GMT 25.798679 -80.348907 750 87 141 -768
2022-08-12 10:07:21 GMT 25.798660 -80.349648 825 87 140 -768
2022-08-12 10:07:20 GMT 25.798540 -80.350372 825 91 139 -768
2022-08-12 10:07:18 GMT 25.798639 -80.351822 825 87 138 -768
2022-08-12 10:07:17 GMT 25.798571 -80.352539 825 89 137 -768
2022-08-12 10:07:15 GMT 25.798580 -80.353912 900 86 141 -768
2022-08-12 10:07:14 GMT 25.798540 -80.354630 900 87 141 -768
2022-08-12 10:07:12 GMT 25.798491 -80.356102 875 86 139 -768
2022-08-12 10:07:11 GMT 25.798450 -80.356827 900 86 137 -768
2022-08-12 10:07:09 GMT 25.798349 -80.358948 1,000 86 138 -768
2022-08-12 10:07:07 GMT 25.798330 -80.359642 1,000 86 139 -768
2022-08-12 10:07:05 GMT 25.798250 -80.361076 1,000 86 138 -768
2022-08-12 10:07:04 GMT 25.798189 -80.361832 1,000 87 135 -768
2022-08-12 10:07:02 GMT 25.798120 -80.363213 1,000 87 136 -768
2022-08-12 10:07:01 GMT 25.798100 -80.363876 1,000 86 138 -768
2022-08-12 10:06:59 GMT 25.798019 -80.365318 1,100 87 136 -768
2022-08-12 10:06:58 GMT 25.797979 -80.366013 1,100 87 136 -768
2022-08-12 10:06:57 GMT 25.797920 -80.367432 1,100 87 134 -768
2022-08-12 10:06:55 GMT 25.797899 -80.368118 1,100 87 134 -768
2022-08-12 10:06:54 GMT 25.797850 -80.369476 1,100 87 136 -768
2022-08-12 10:06:52 GMT 25.797831 -80.370178 1,100 86 135 -768
2022-08-12 10:06:50 GMT 25.797760 -80.371590 1,200 86 133 -768
2022-08-12 10:06:49 GMT 25.797729 -80.372253 1,200 86 135 -768
2022-08-12 10:06:47 GMT 25.797661 -80.373642 1,200 86 135 -768
2022-08-12 10:06:46 GMT 25.797600 -80.375023 1,200 86 134 -768
2022-08-12 10:06:44 GMT 25.797581 -80.375702 1,200 86 135 -768
2022-08-12 10:06:43 GMT 25.797529 -80.376404 1,200 86 135 -768
2022-08-12 10:06:41 GMT 25.797440 -80.377777 1,300 87 134 -768
2022-08-12 10:06:40 GMT 25.797409 -80.378464 1,300 87 135 -768
2022-08-12 10:06:39 GMT 25.797340 -80.379829 1,300 87 136 -768
2022-08-12 10:06:37 GMT 25.797319 -80.380508 1,300 87 137 0
2022-08-12 10:06:36 GMT 25.797300 -80.381218 1,400 87 136 0
2022-08-12 10:06:34 GMT 25.797220 -80.382599 1,400 87 137 0
2022-08-12 10:06:33 GMT 25.797211 -80.383301 1,400 87 137 0
2022-08-12 10:06:31 GMT 25.797119 -80.384712 1,400 87 137 0
2022-08-12 10:06:30 GMT 25.797079 -80.385429 1,400 87 135 0
2022-08-12 10:06:28 GMT 25.797029 -80.386818 1,400 87 136 0
2022-08-12 10:06:27 GMT 25.797020 -80.387520 1,500 87 136 0
2022-08-12 10:06:25 GMT 25.796949 -80.388908 1,500 88 135 0
2022-08-12 10:06:23 GMT 25.796900 -80.390266 1,500 88 138 0
2022-08-12 10:06:22 GMT 25.796900 -80.391006 1,600 88 136 0
2022-08-12 10:06:21 GMT 25.796850 -80.392410 1,600 88 135 0
2022-08-12 10:06:19 GMT 25.796820 -80.393089 1,600 88 136 0
2022-08-12 10:06:17 GMT 25.796801 -80.394508 1,600 87 135 0
2022-08-12 10:06:16 GMT 25.796789 -80.395203 1,600 87 135 0
2022-08-12 10:06:15 GMT 25.796761 -80.395889 1,600 87 135 0
2022-08-12 10:06:14 GMT 25.796721 -80.397270 1,600 87 136 0
2022-08-12 10:06:12 GMT 25.796680 -80.398003 1,600 87 134 0
2022-08-12 10:06:11 GMT 25.796680 -80.398666 1,600 87 135 0
2022-08-12 10:06:09 GMT 25.796631 -80.400047 1,600 87 134 0
2022-08-12 10:06:08 GMT 25.796600 -80.400749 1,800 87 134 0
2022-08-12 10:06:07 GMT 25.796530 -80.402138 1,800 87 132 0
2022-08-12 10:06:05 GMT 25.796520 -80.402817 1,800 87 131 0
2022-08-12 10:06:03 GMT 25.796471 -80.404152 1,800 87 134 0
2022-08-12 10:06:02 GMT 25.796419 -80.405518 1,800 86 133 0
2022-08-12 10:06:00 GMT 25.796350 -80.406914 1,900 86 131 0
2022-08-12 10:05:58 GMT 25.796301 -80.407570 1,900 87 132 0
2022-08-12 10:05:57 GMT 25.796261 -80.408249 1,900 87 132 0
2022-08-12 10:05:55 GMT 25.796221 -80.409607 1,900 87 132 0
2022-08-12 10:05:54 GMT 25.796169 -80.410271 1,900 87 133 0
2022-08-12 10:05:53 GMT 25.796120 -80.411652 1,900 87 131 0
2022-08-12 10:05:51 GMT 25.796070 -80.412308 1,900 87 132 64
2022-08-12 10:05:50 GMT 25.796021 -80.413658 1,900 88 131 -768
2022-08-12 10:05:48 GMT 25.796009 -80.414299 1,900 88 133 -768
2022-08-12 10:05:47 GMT 25.795980 -80.414970 1,900 88 135 -768
2022-08-12 10:05:46 GMT 25.795910 -80.416412 2,000 88 130 -768
2022-08-12 10:05:41 GMT 25.795853 -80.418571 1,925 87 135 -768
2022-08-12 10:05:31 GMT 25.795578 -80.425972 2,050 87 142 -960
2022-08-12 10:05:27 GMT 25.795303 -80.433754 2,700 87 169 -1280
2022-08-12 10:05:21 GMT 25.795303 -80.433754 2,200 86 148 -1152
2022-08-12 10:05:16 GMT 25.795120 -80.436760 2,250 86 150 -768
2022-08-12 10:05:09 GMT 25.794735 -80.442207 2,350 85 153 -896
2022-08-12 10:05:06 GMT 25.794571 -80.444847 2,400 85 154 -832
2022-08-12 10:05:00 GMT 25.794128 -80.450500 2,475 85 155 -768
2022-08-12 10:04:55 GMT 25.793930 -80.453339 2,525 85 157 -576
2022-08-12 10:04:49 GMT 25.793617 -80.458839 2,600 87 164 -704
2022-08-12 10:04:46 GMT 25.793518 -80.461525 2,650 87 171 -1024
2022-08-12 10:04:43 GMT 25.793381 -80.464073 2,700 87 169 -1280
2022-08-12 10:04:38 GMT 25.793243 -80.468292 2,800 88 174 -1024
2022-08-12 10:04:32 GMT 25.793106 -80.473427 2,875 88 176 -1088
2022-08-12 10:04:28 GMT 25.793013 -80.477600 2,975 88 177 -1088
2022-08-12 10:04:22 GMT 25.792831 -80.488838 3,050 89 177 -1088
2022-08-12 10:04:15 GMT 25.792831 -80.488838 3,200 88 176 -1024
2022-08-12 10:04:10 GMT 25.792740 -80.493568 3,275 88 175 -960
2022-08-12 10:04:07 GMT 25.792648 -80.496773 3,375 88 175 -832
2022-08-12 10:04:04 GMT 25.792557 -80.498863 3,375 88 175 -832
2022-08-12 10:03:56 GMT 25.792374 -80.506233 3,500 88 179 -832
2022-08-12 10:03:53 GMT 25.792315 -80.508484 3,525 88 179 -896
2022-08-12 10:03:46 GMT 25.792034 -80.515945 3,650 87 185 -960
2022-08-12 10:03:43 GMT 25.791916 -80.518288 3,675 86 187 -960
2022-08-12 10:03:35 GMT 25.791523 -80.525742 3,800 86 193 -832
2022-08-12 10:03:31 GMT 25.791275 -80.529732 3,850 86 196 -768
2022-08-12 10:03:23 GMT 25.790634 -80.538429 3,975 84 203 -832
2022-08-12 10:03:20 GMT 25.790405 -80.540619 4,000 84 204 -768
2022-08-12 10:03:14 GMT 25.789568 -80.547768 4,625 49 215 -1216
2022-08-12 10:03:11 GMT 25.789261 -80.549980 4,625 49 215 -1216
2022-08-12 10:03:04 GMT 25.783655 -80.564873 4,625 49 215 -1216
2022-08-12 10:02:57 GMT 25.783655 -80.564873 4,625 49 215 -1216
2022-08-12 10:02:52 GMT 25.780954 -80.568291 4,725 44 218 -1216
2022-08-12 10:02:49 GMT 25.778023 -80.571297 4,775 38 223 -896
2022-08-12 10:02:41 GMT 25.770760 -80.576889 4,925 33 229 -1536
2022-08-12 10:02:31 GMT 25.762985 -80.582436 5,150 33 231 -1472
2022-08-12 10:02:22 GMT 25.753372 -80.589294 5,375 32 235 -1280
2022-08-12 10:02:09 GMT 25.742783 -80.596741 5,575 32 241 -704
2022-08-12 10:02:00 GMT 25.732821 -80.603577 5,700 31 250 -640
2022-08-12 10:01:54 GMT 25.727467 -80.607262 5,775 31 253 -1408
2022-08-12 10:01:49 GMT 25.722300 -80.610733 5,925 31 254 -1472
2022-08-12 10:01:38 GMT 25.711304 -80.618034 6,200 30 257 -1600
2022-08-12 10:01:28 GMT 25.701233 -80.624596 6,450 30 261 -1408
2022-08-12 10:01:16 GMT 25.688736 -80.632835 6,700 30 266 -1216
2022-08-12 10:01:08 GMT 25.678633 -80.639595 6,925 31 269 -1728
2022-08-12 10:00:56 GMT 25.667461 -80.647423 7,175 32 272 -1536
2022-08-12 10:00:47 GMT 25.656052 -80.655418 7,425 32 274 -1216
2022-08-12 10:00:36 GMT 25.644882 -80.663277 7,650 32 276 -1280
2022-08-12 10:00:24 GMT 25.633198 -80.671516 7,900 32 277 -1344
2022-08-12 10:00:13 GMT 25.619558 -80.681259 8,075 33 283 -512
2022-08-12 10:00:05 GMT 25.612017 -80.686752 8,200 33 287 -1600
2022-08-12 10:00:00 GMT 25.606197 -80.690956 8,325 33 287 -1600
2022-08-12 09:59:54 GMT 25.600159 -80.695396 8,450 33 288 -1472
2022-08-12 09:59:44 GMT 25.588943 -80.703789 8,700 34 289 -1472
2022-08-12 09:59:39 GMT 25.581526 -80.709297 8,875 34 290 -1856
2022-08-12 09:59:34 GMT 25.577290 -80.712456 8,975 34 290 -1600
2022-08-12 09:59:31 GMT 25.573975 -80.714928 9,050 33 291 -1600
2022-08-12 09:59:21 GMT 25.561741 -80.723862 9,350 33 293 -1664
2022-08-12 09:59:11 GMT 25.550034 -80.732216 9,625 32 292 -1728
2022-08-12 09:59:03 GMT 25.542160 -80.737511 9,825 30 292 -1344
2022-08-12 09:58:59 GMT 25.537859 -80.740288 9,900 29 293 -768
2022-08-12 09:58:53 GMT 25.529945 -80.745316 10,000 30 296 -896
2022-08-12 09:58:49 GMT 25.524673 -80.748749 10,075 32 296 -832
2022-08-12 09:58:46 GMT 25.521652 -80.750885 10,100 35 299 -960
2022-08-12 09:58:40 GMT 25.514862 -80.755989 10,200 35 299 -960
2022-08-12 09:58:38 GMT 25.512583 -80.757751 10,225 37 303 -832
2022-08-12 09:58:32 GMT 25.505859 -80.763191 10,300 37 303 -832
2022-08-12 09:58:27 GMT 25.500778 -80.767464 10,475 37 307 -960
2022-08-12 09:58:21 GMT 25.493958 -80.773163 10,475 37 310 -1024
2022-08-12 09:58:17 GMT 25.488607 -80.777649 10,550 37 313 -960
2022-08-12 09:58:14 GMT 25.486280 -80.779617 10,575 37 315 -896
2022-08-12 09:58:13 GMT 25.485306 -80.780434 10,600 37 315 -896
2022-08-12 09:58:11 GMT 25.482285 -80.782982 10,650 37 316 -960
2022-08-12 09:58:04 GMT 25.473953 -80.790047 10,750 37 321 -1024
2022-08-12 09:58:02 GMT 25.470219 -80.793198 10,800 37 323 -896
2022-08-12 09:58:00 GMT 25.468542 -80.794594 10,825 37 323 -896
2022-08-12 09:57:50 GMT 25.457657 -80.803734 10,950 36 331 -1088
2022-08-12 09:57:46 GMT 25.450808 -80.809265 11,050 35 330 -1088
2022-08-12 09:57:40 GMT 25.444382 -80.814415 11,150 35 331 -960
2022-08-12 09:57:35 GMT 25.437819 -80.819626 11,225 35 332 -896
2022-08-12 09:57:32 GMT 25.434467 -80.822319 11,250 35 332 -768
2022-08-12 09:57:30 GMT 25.431860 -80.824394 11,300 36 332 -896
2022-08-12 09:57:25 GMT 25.424086 -80.830612 11,375 36 333 -768
2022-08-12 09:57:19 GMT 25.418919 -80.834915 11,425 37 333 -768
2022-08-12 09:57:14 GMT 25.411789 -80.840858 11,500 37 335 -768
2022-08-12 09:57:09 GMT 25.405838 -80.846046 11,575 39 335 -960
2022-08-12 09:56:58 GMT 25.394245 -80.858543 11,750 47 334 -768
2022-08-12 09:56:52 GMT 25.387869 -80.866264 11,850 47 334 -960
2022-08-12 09:56:48 GMT 25.383911 -80.871025 11,900 47 335 -832
2022-08-12 09:56:43 GMT 25.377068 -80.879272 12,000 48 335 -960
2022-08-12 09:56:38 GMT 25.372925 -80.884407 12,050 48 335 -960
2022-08-12 09:56:32 GMT 25.365692 -80.893250 12,150 48 335 -896
2022-08-12 09:56:27 GMT 25.361380 -80.898552 12,225 48 335 -832
2022-08-12 09:56:21 GMT 25.355255 -80.906166 12,300 48 335 -832
2022-08-12 09:56:17 GMT 25.351227 -80.911156 12,350 48 335 -896
2022-08-12 09:56:11 GMT 25.343948 -80.920311 12,450 48 335 -896
2022-08-12 09:55:59 GMT 25.333170 -80.933891 12,600 49 334 -896
2022-08-12 09:55:55 GMT 25.329025 -80.939232 12,675 49 334 -960
2022-08-12 09:55:50 GMT 25.322556 -80.947525 12,775 49 335 -960
2022-08-12 09:55:44 GMT 25.317993 -80.953384 12,850 49 334 -896
2022-08-12 09:55:39 GMT 25.311905 -80.961304 12,925 49 335 -896
2022-08-12 09:55:34 GMT 25.307611 -80.966850 13,000 49 335 -896
2022-08-12 09:55:25 GMT 25.298676 -80.978394 13,125 49 336 -960
2022-08-12 09:55:18 GMT 25.290062 -80.989449 13,250 49 337 -832
2022-08-12 09:55:14 GMT 25.287552 -80.992638 13,275 49 337 -768
2022-08-12 09:55:07 GMT 25.279266 -81.002960 13,400 48 338 -896
2022-08-12 09:55:04 GMT 25.277308 -81.005356 13,425 48 338 -896
2022-08-12 09:54:55 GMT 25.267624 -81.017174 13,575 47 338 -832
2022-08-12 09:54:46 GMT 25.256378 -81.030373 13,725 46 338 -768
2022-08-12 09:54:43 GMT 25.254169 -81.032928 13,750 46 338 -832
2022-08-12 09:54:34 GMT 25.245186 -81.043190 13,850 45 340 -832
2022-08-12 09:54:25 GMT 25.221815 -81.069511 14,150 45 344 -896
2022-08-12 09:54:12 GMT 25.219814 -81.071739 14,175 45 345 -768
2022-08-12 09:54:03 GMT 25.209665 -81.083351 14,300 46 349 -832
2022-08-12 09:53:47 GMT 25.190161 -81.104752 14,475 44 359 -768
2022-08-12 09:53:38 GMT 25.179081 -81.116051 14,675 42 372 -768
2022-08-12 09:53:30 GMT 25.170050 -81.125015 14,750 41 377 -704
2022-08-12 09:53:01 GMT 25.132187 -81.167297 15,150 47 390 -704
2022-08-12 09:52:58 GMT 25.129923 -81.170052 15,325 47 390 -832
2022-08-12 09:52:48 GMT 25.117813 -81.184792 15,325 47 392 -704
2022-08-12 09:52:29 GMT 25.093517 -81.214355 15,625 47 395 -832
2022-08-12 09:52:25 GMT 25.089249 -81.219536 15,675 47 395 -896
2022-08-12 09:52:17 GMT 25.079544 -81.231384 15,775 48 405 -832
2022-08-12 09:51:41 GMT 25.035189 -81.285820 16,325 48 405 -832
2022-08-12 09:51:24 GMT 25.013763 -81.311852 16,625 47 407 -1536
2022-08-12 09:51:16 GMT 25.001953 -81.326141 16,875 47 407 -1344
2022-08-12 09:48:41 GMT 24.807175 -81.561943 20,575 48 405 -1536
2022-08-12 09:48:19 GMT 24.778885 -81.596474 21,125 48 405 -1408
2022-08-12 09:47:32 GMT 24.721710 -81.666008 22,250 47 405 -1408

Making use of Plane Finder data

You are free to use the raw flight data, aircraft information and images provided in this report for your own purposes provided the data is correctly attributed to Plane Finder. We ask that you please credit Plane Finder and link to planefinder.net in close proximity to the content.

Optionally one of the following logos (no smaller then 150x24px) can be used and must link to planefinder.net

Embedding the Plane Finder map

You are welcome to embed the Plane Finder playback map on your website to offer visitors a more interactive experience. We suggest using the following HTML code:

<iframe src="//planefinder.net/data/report/6R4066-XA-GGL-7700-squawk-2022-08-12/map" width="800" height="600" seamless="seamless"></iframe>

Where our data comes from

Plane Finder has a global network of data feeds and antenna radars that receive data broadcast directly from aircraft. The primary technologies used are ADS-B and MLAT. We also show feeds from the FAA and a FLARM glider feed.

Click here to find out more about the Plane Finder network.

How we collect our data